Time;durP1;ratioP1;P1;durP2;ratioP2;P2;SDS_P1;SDS_P2;PMS_P1;PMS_P2;Temp;Humidity;BMP_temperature;BMP_pressure;BME280_temperature;BME280_humidity;BME280_pressure;Samples;Min_cycle;Max_cycle;Signal;HPM_P1;HPM_P2
2021/07/23 00:01:46;;;;;;;3.47;2.33;;;;;;;;;;5090841;28;20591;-50
2021/07/23 00:04:13;;;;;;;1.98;1.88;;;;;;;;;;5079852;28;20035;-51
2021/07/23 00:06:39;;;;;;;2.65;2.28;;;;;;;;;;5093822;28;20064;-47
2021/07/23 00:09:06;;;;;;;5.60;2.75;;;;;;;;;;5092347;28;20040;-50
2021/07/23 00:11:33;;;;;;;2.80;2.70;;;;;;;;;;5093712;28;20418;-50
2021/07/23 00:14:00;;;;;;;3.97;3.33;;;;;;;;;;5091130;28;20044;-51
2021/07/23 00:16:26;;;;;;;4.43;2.80;;;;;;;;;;5079610;28;20052;-50
2021/07/23 00:18:53;;;;;;;7.32;3.25;;;;;;;;;;5086982;28;20119;-50
2021/07/23 00:21:20;;;;;;;5.10;2.55;;;;;;;;;;5092852;28;20057;-49
2021/07/23 00:23:46;;;;;;;5.93;3.40;;;;;;;;;;5091557;28;20089;-48
2021/07/23 00:26:13;;;;;;;3.15;2.95;;;;;;;;;;5089969;28;20028;-50
2021/07/23 00:28:40;;;;;;;3.20;2.85;;;;;;;;;;5085640;28;20066;-49
2021/07/23 00:31:07;;;;;;;3.67;3.38;;;;;;;;;;5083170;28;20076;-49
2021/07/23 00:33:34;;;;;;;3.38;3.17;;;;;;;;;;5091097;28;20661;-51
2021/07/23 00:36:01;;;;;;;2.88;2.78;;;;;;;;;;5087459;28;20048;-51
2021/07/23 00:38:28;;;;;;;2.60;2.45;;;;;;;;;;5089478;28;20185;-50
2021/07/23 00:40:55;;;;;;;2.90;2.80;;;;;;;;;;5096304;28;20448;-51
2021/07/23 00:43:22;;;;;;;3.50;3.35;;;;;;;;;;5092832;28;20040;-48
2021/07/23 00:45:49;;;;;;;4.80;3.08;;;;;;;;;;5089401;28;20040;-51
2021/07/23 00:48:15;;;;;;;2.75;2.65;;;;;;;;;;5092893;28;20507;-51
2021/07/23 00:50:42;;;;;;;4.45;3.47;;;;;;;;;;5091281;28;20051;-49
2021/07/23 00:53:10;;;;;;;3.58;3.38;;;;;;;;;;5090578;28;20064;-47
2021/07/23 00:55:40;;;;;;;3.17;2.92;;;;;;;;;;5092638;28;20059;-49
2021/07/23 00:58:07;;;;;;;3.42;3.13;;;;;;;;;;5089114;28;20051;-49
2021/07/23 01:00:35;;;;;;;4.18;3.92;;;;;;;;;;5082891;28;20067;-49
2021/07/23 01:03:03;;;;;;;4.10;3.72;;;;;;;;;;5084918;28;20609;-51
2021/07/23 01:05:31;;;;;;;2.90;2.80;;;;;;;;;;5081148;28;20055;-48
2021/07/23 01:08:00;;;;;;;4.38;3.40;;;;;;;;;;5091864;28;20043;-48
2021/07/23 01:10:28;;;;;;;4.30;4.10;;;;;;;;;;5088145;28;20085;-51
2021/07/23 01:12:55;;;;;;;4.32;3.92;;;;;;;;;;5074130;28;20052;-52
2021/07/23 01:15:22;;;;;;;4.38;4.28;;;;;;;;;;5083145;28;20102;-50
2021/07/23 01:17:48;;;;;;;5.22;4.78;;;;;;;;;;5086180;28;20068;-51
2021/07/23 01:20:16;;;;;;;4.40;4.10;;;;;;;;;;5089834;28;20046;-51
2021/07/23 01:22:43;;;;;;;4.57;3.53;;;;;;;;;;5087851;28;20102;-50
2021/07/23 01:25:10;;;;;;;4.15;3.85;;;;;;;;;;5086275;28;20127;-48
2021/07/23 01:27:43;;;;;;;3.97;3.72;;;;;;;;;;5082012;28;20435;-48
2021/07/23 01:30:10;;;;;;;4.25;3.95;;;;;;;;;;5082479;28;20064;-50
2021/07/23 01:32:37;;;;;;;3.33;3.22;;;;;;;;;;5090061;28;20542;-48
2021/07/23 01:35:04;;;;;;;4.28;2.58;;;;;;;;;;5090221;28;20048;-50
2021/07/23 01:37:31;;;;;;;3.42;3.22;;;;;;;;;;5091100;28;20071;-50
2021/07/23 01:39:58;;;;;;;3.20;2.92;;;;;;;;;;5086404;28;20722;-51
2021/07/23 01:42:28;;;;;;;3.53;3.20;;;;;;;;;;5094492;28;20151;-50
2021/07/23 01:44:55;;;;;;;3.83;3.72;;;;;;;;;;5085320;28;20044;-49
2021/07/23 01:47:22;;;;;;;3.33;3.22;;;;;;;;;;5090120;28;20107;-49
2021/07/23 01:49:49;;;;;;;3.92;3.63;;;;;;;;;;5089585;28;20043;-50
2021/07/23 01:52:16;;;;;;;4.28;3.95;;;;;;;;;;5090355;28;20071;-51
2021/07/23 01:54:42;;;;;;;3.70;3.40;;;;;;;;;;5087907;28;20093;-51
2021/07/23 01:57:09;;;;;;;3.75;3.55;;;;;;;;;;5081116;28;20039;-48
2021/07/23 01:59:36;;;;;;;4.15;3.95;;;;;;;;;;5075248;28;20080;-51
2021/07/23 02:02:03;;;;;;;5.10;3.75;;;;;;;;;;5088231;28;20115;-48
2021/07/23 02:04:30;;;;;;;4.53;4.10;;;;;;;;;;5085902;28;20043;-49
2021/07/23 02:06:57;;;;;;;5.00;4.47;;;;;;;;;;5086464;28;20048;-46
2021/07/23 02:09:24;;;;;;;3.13;2.92;;;;;;;;;;5077373;28;20603;-48
2021/07/23 02:11:51;;;;;;;3.50;3.22;;;;;;;;;;5090098;28;20046;-50
2021/07/23 02:14:17;;;;;;;4.30;2.88;;;;;;;;;;5087595;28;20056;-51
2021/07/23 02:16:45;;;;;;;4.00;3.10;;;;;;;;;;5091849;28;20032;-49
2021/07/23 02:19:11;;;;;;;3.97;3.67;;;;;;;;;;5084633;28;20567;-50
2021/07/23 02:21:40;;;;;;;3.70;3.50;;;;;;;;;;5084514;28;20531;-51
2021/07/23 02:24:07;;;;;;;4.55;4.15;;;;;;;;;;5084428;28;20043;-51
2021/07/23 02:26:33;;;;;;;3.85;3.67;;;;;;;;;;5089247;28;20101;-50
2021/07/23 02:29:00;;;;;;;3.40;3.30;;;;;;;;;;5090249;28;20119;-51
2021/07/23 02:31:27;;;;;;;3.85;3.75;;;;;;;;;;5084318;28;20036;-47
2021/07/23 02:33:54;;;;;;;3.90;3.40;;;;;;;;;;5078180;28;20036;-50
2021/07/23 02:36:21;;;;;;;3.30;3.10;;;;;;;;;;5085905;28;20527;-51
2021/07/23 02:38:47;;;;;;;3.78;3.42;;;;;;;;;;5090136;28;20040;-51
2021/07/23 02:41:14;;;;;;;3.83;3.72;;;;;;;;;;5098961;28;20564;-49
2021/07/23 02:43:41;;;;;;;3.88;3.30;;;;;;;;;;5092075;28;20136;-47
2021/07/23 02:46:07;;;;;;;3.22;3.10;;;;;;;;;;5088492;28;20060;-49
2021/07/23 02:48:34;;;;;;;6.03;3.92;;;;;;;;;;5089583;28;20082;-50
2021/07/23 02:51:01;;;;;;;4.65;4.45;;;;;;;;;;5090319;28;20040;-51
2021/07/23 02:53:27;;;;;;;4.32;3.90;;;;;;;;;;5089086;28;20174;-51
2021/07/23 02:55:54;;;;;;;4.70;4.30;;;;;;;;;;5091950;28;20044;-51
2021/07/23 02:58:21;;;;;;;4.32;4.03;;;;;;;;;;5088885;28;20531;-51
2021/07/23 03:00:48;;;;;;;4.50;4.18;;;;;;;;;;5088583;28;20044;-48
2021/07/23 03:03:15;;;;;;;3.35;3.25;;;;;;;;;;5087124;28;20081;-49
2021/07/23 03:05:42;;;;;;;4.30;3.88;;;;;;;;;;5084492;28;20044;-47
2021/07/23 03:08:09;;;;;;;3.88;3.67;;;;;;;;;;5089070;28;20059;-49
2021/07/23 03:10:36;;;;;;;4.90;4.72;;;;;;;;;;5088556;28;20040;-49
2021/07/23 03:13:02;;;;;;;4.55;4.38;;;;;;;;;;5090305;28;20044;-49
2021/07/23 03:15:29;;;;;;;4.88;4.50;;;;;;;;;;5087956;28;20804;-50
2021/07/23 03:17:56;;;;;;;4.13;3.83;;;;;;;;;;5088012;28;20085;-49
2021/07/23 03:20:22;;;;;;;4.75;4.35;;;;;;;;;;5087335;28;20040;-48
2021/07/23 03:22:49;;;;;;;4.25;4.03;;;;;;;;;;5087283;28;20131;-47
2021/07/23 03:25:16;;;;;;;4.43;4.03;;;;;;;;;;5088259;28;20105;-49
2021/07/23 03:27:43;;;;;;;5.70;5.22;;;;;;;;;;5085184;28;20048;-50
2021/07/23 03:30:10;;;;;;;4.70;4.40;;;;;;;;;;5072020;28;20451;-48
2021/07/23 03:32:36;;;;;;;4.15;3.85;;;;;;;;;;5086998;28;20509;-49
2021/07/23 03:35:03;;;;;;;4.95;4.75;;;;;;;;;;5088009;28;20114;-47
2021/07/23 03:37:30;;;;;;;3.58;3.38;;;;;;;;;;5083562;28;20076;-48
2021/07/23 03:39:57;;;;;;;4.43;4.18;;;;;;;;;;5088800;28;20089;-50
2021/07/23 03:42:23;;;;;;;3.20;3.10;;;;;;;;;;5087528;28;20419;-49
2021/07/23 03:44:50;;;;;;;3.55;3.42;;;;;;;;;;5090319;28;20036;-49
2021/07/23 03:47:18;;;;;;;3.97;3.78;;;;;;;;;;5088415;28;20055;-51
2021/07/23 03:49:45;;;;;;;3.63;3.33;;;;;;;;;;5071674;28;20111;-50
2021/07/23 03:52:12;;;;;;;4.75;4.38;;;;;;;;;;5087978;28;20067;-49
2021/07/23 03:54:39;;;;;;;4.65;4.35;;;;;;;;;;5088493;28;20052;-49
2021/07/23 03:57:05;;;;;;;5.82;5.50;;;;;;;;;;5081057;28;20068;-50
2021/07/23 03:59:33;;;;;;;3.60;3.45;;;;;;;;;;5089321;28;20067;-50
2021/07/23 04:01:59;;;;;;;3.88;3.67;;;;;;;;;;5070839;28;20381;-47
2021/07/23 04:04:26;;;;;;;4.65;4.35;;;;;;;;;;5088215;28;20067;-47
2021/07/23 04:06:59;;;;;;;4.70;4.45;;;;;;;;;;5082799;28;20040;-49
2021/07/23 04:09:27;;;;;;;4.63;4.53;;;;;;;;;;5086251;28;20511;-49
2021/07/23 04:11:54;;;;;;;6.07;5.38;;;;;;;;;;5087691;28;20430;-49
2021/07/23 04:14:21;;;;;;;4.93;4.55;;;;;;;;;;5087555;28;20040;-50
2021/07/23 04:16:48;;;;;;;6.28;5.85;;;;;;;;;;5089428;28;20046;-50
2021/07/23 04:19:15;;;;;;;4.85;4.65;;;;;;;;;;5086649;28;20047;-47
2021/07/23 04:21:42;;;;;;;4.80;4.45;;;;;;;;;;5088502;28;20044;-48
2021/07/23 04:24:10;;;;;;;5.75;5.45;;;;;;;;;;5087724;28;20036;-47
2021/07/23 04:26:37;;;;;;;5.53;5.22;;;;;;;;;;5091627;28;20492;-48
2021/07/23 04:29:04;;;;;;;5.50;5.30;;;;;;;;;;5091793;28;20044;-50
2021/07/23 04:31:31;;;;;;;5.57;5.13;;;;;;;;;;5089456;28;20102;-49
2021/07/23 04:33:58;;;;;;;5.47;4.95;;;;;;;;;;5093347;28;20068;-47
2021/07/23 04:36:25;;;;;;;10.77;5.50;;;;;;;;;;5089028;28;20132;-47
2021/07/23 04:38:52;;;;;;;9.82;4.93;;;;;;;;;;5077814;28;20365;-48
2021/07/23 04:41:19;;;;;;;6.00;5.65;;;;;;;;;;5093660;28;20068;-47
2021/07/23 04:43:46;;;;;;;6.35;5.85;;;;;;;;;;5090968;28;20027;-50
2021/07/23 04:46:13;;;;;;;5.18;4.57;;;;;;;;;;5091191;28;20423;-50
2021/07/23 04:48:39;;;;;;;5.70;5.32;;;;;;;;;;5087762;28;20055;-50
2021/07/23 04:51:06;;;;;;;4.88;4.72;;;;;;;;;;5090084;28;20062;-48
2021/07/23 04:53:33;;;;;;;5.03;4.82;;;;;;;;;;5093621;28;20430;-50
2021/07/23 04:56:01;;;;;;;5.00;4.70;;;;;;;;;;5089901;28;20051;-50
2021/07/23 04:58:28;;;;;;;5.28;4.93;;;;;;;;;;5092051;28;20597;-50
2021/07/23 05:00:55;;;;;;;6.15;5.72;;;;;;;;;;5086507;28;20094;-49
2021/07/23 05:03:24;;;;;;;5.32;5.03;;;;;;;;;;5089333;28;20464;-51
2021/07/23 05:05:52;;;;;;;6.75;6.32;;;;;;;;;;5102252;28;20066;-48
2021/07/23 05:08:19;;;;;;;5.85;5.35;;;;;;;;;;5092395;28;20067;-50
2021/07/23 05:10:46;;;;;;;4.93;4.55;;;;;;;;;;5090437;28;20067;-49
2021/07/23 05:13:13;;;;;;;4.85;4.38;;;;;;;;;;5084658;28;20082;-49
2021/07/23 05:15:39;;;;;;;4.88;4.57;;;;;;;;;;5081211;28;20035;-49
2021/07/23 05:18:08;;;;;;;6.35;5.88;;;;;;;;;;5091501;28;20050;-50
2021/07/23 05:20:36;;;;;;;5.68;5.18;;;;;;;;;;5090264;28;20441;-51
2021/07/23 05:23:03;;;;;;;5.97;5.75;;;;;;;;;;5090096;28;20086;-48
2021/07/23 05:25:31;;;;;;;6.57;6.05;;;;;;;;;;5091380;28;20044;-57
2021/07/23 05:27:58;;;;;;;6.57;6.30;;;;;;;;;;5090644;28;20066;-57
2021/07/23 05:30:24;;;;;;;6.45;5.95;;;;;;;;;;5074577;28;20102;-57
2021/07/23 05:32:51;;;;;;;6.57;6.18;;;;;;;;;;5087769;28;20041;-56
2021/07/23 05:35:18;;;;;;;6.22;5.90;;;;;;;;;;5075862;28;20554;-58
2021/07/23 05:37:46;;;;;;;6.30;6.00;;;;;;;;;;5092055;28;20499;-57
2021/07/23 05:40:14;;;;;;;7.07;6.60;;;;;;;;;;5091449;28;20072;-57
2021/07/23 05:42:40;;;;;;;6.90;5.57;;;;;;;;;;5088871;28;20070;-57
2021/07/23 05:45:07;;;;;;;5.88;5.47;;;;;;;;;;5088922;28;20036;-57
2021/07/23 05:47:34;;;;;;;5.80;5.60;;;;;;;;;;5088680;28;20102;-57
2021/07/23 05:50:01;;;;;;;6.03;5.57;;;;;;;;;;5091597;28;20063;-57
2021/07/23 05:52:28;;;;;;;6.28;5.75;;;;;;;;;;5084481;28;20034;-57
2021/07/23 05:54:54;;;;;;;6.85;6.20;;;;;;;;;;5069984;28;20068;-56
2021/07/23 05:57:21;;;;;;;5.13;4.93;;;;;;;;;;5089229;28;20086;-56
2021/07/23 05:59:48;;;;;;;6.95;6.40;;;;;;;;;;5088701;28;20044;-58
2021/07/23 06:02:15;;;;;;;6.13;5.55;;;;;;;;;;5105085;28;20123;-56
2021/07/23 06:04:42;;;;;;;5.72;5.38;;;;;;;;;;5094957;28;20035;-57
2021/07/23 06:07:09;;;;;;;5.93;5.07;;;;;;;;;;5083991;28;20400;-56
2021/07/23 06:09:35;;;;;;;5.70;5.32;;;;;;;;;;5084936;28;20078;-56
2021/07/23 06:12:02;;;;;;;5.53;5.13;;;;;;;;;;5088980;28;20032;-56
2021/07/23 06:14:29;;;;;;;6.00;5.57;;;;;;;;;;5091388;28;20048;-56
2021/07/23 06:16:56;;;;;;;5.38;5.03;;;;;;;;;;5087285;28;20435;-58
2021/07/23 06:19:23;;;;;;;6.55;6.22;;;;;;;;;;5076622;28;20101;-56
2021/07/23 06:21:49;;;;;;;5.95;5.10;;;;;;;;;;5090076;28;20048;-57
2021/07/23 06:24:16;;;;;;;5.55;5.35;;;;;;;;;;5082236;28;20391;-56
2021/07/23 06:26:43;;;;;;;5.55;5.25;;;;;;;;;;5078701;28;20071;-56
2021/07/23 06:29:10;;;;;;;7.15;5.22;;;;;;;;;;5085686;28;20059;-57
2021/07/23 06:31:36;;;;;;;5.03;4.72;;;;;;;;;;5104502;28;20423;-58
2021/07/23 06:34:03;;;;;;;4.80;4.47;;;;;;;;;;5089897;28;20117;-57
2021/07/23 06:36:33;;;;;;;4.97;4.55;;;;;;;;;;5088239;28;20126;-56
2021/07/23 06:39:00;;;;;;;4.40;4.30;;;;;;;;;;5088961;28;20050;-56
2021/07/23 06:41:27;;;;;;;5.05;4.95;;;;;;;;;;5088551;28;20144;-56
2021/07/23 06:43:53;;;;;;;4.75;4.55;;;;;;;;;;5088688;28;20042;-55
2021/07/23 06:46:20;;;;;;;4.97;4.55;;;;;;;;;;5089536;28;20048;-57
2021/07/23 06:48:47;;;;;;;4.65;4.38;;;;;;;;;;5090237;28;20047;-57
2021/07/23 06:51:14;;;;;;;4.88;4.53;;;;;;;;;;5086258;28;20123;-57
2021/07/23 06:53:40;;;;;;;5.05;4.80;;;;;;;;;;5085746;28;20092;-56
2021/07/23 06:56:07;;;;;;;3.65;3.45;;;;;;;;;;5083289;28;20048;-57
2021/07/23 06:58:34;;;;;;;5.03;4.10;;;;;;;;;;5090685;28;20472;-56
2021/07/23 07:01:06;;;;;;;4.35;4.15;;;;;;;;;;5089220;28;20124;-56
2021/07/23 07:03:33;;;;;;;6.45;4.32;;;;;;;;;;5088571;28;20044;-57
2021/07/23 07:06:01;;;;;;;4.60;3.75;;;;;;;;;;5090848;28;20040;-56
2021/07/23 07:08:27;;;;;;;4.35;4.15;;;;;;;;;;5081842;28;20422;-57
2021/07/23 07:10:54;;;;;;;4.68;4.07;;;;;;;;;;5090370;28;20503;-56
2021/07/23 07:13:21;;;;;;;4.70;4.38;;;;;;;;;;5088061;28;20040;-57
2021/07/23 07:15:48;;;;;;;4.03;3.72;;;;;;;;;;5088275;28;20064;-56
2021/07/23 07:18:14;;;;;;;4.72;3.20;;;;;;;;;;5083198;28;20032;-56
2021/07/23 07:20:41;;;;;;;3.70;2.50;;;;;;;;;;5085101;28;20073;-57
2021/07/23 07:23:08;;;;;;;3.05;2.88;;;;;;;;;;5078518;28;20550;-57
2021/07/23 07:25:35;;;;;;;5.28;3.55;;;;;;;;;;5089421;28;20480;-57
2021/07/23 07:28:02;;;;;;;5.57;3.58;;;;;;;;;;5087894;28;20090;-56
2021/07/23 07:30:29;;;;;;;3.35;3.00;;;;;;;;;;5080816;28;20138;-57
2021/07/23 07:32:57;;;;;;;2.97;2.88;;;;;;;;;;5058542;28;20036;-57
2021/07/23 07:35:23;;;;;;;2.47;2.28;;;;;;;;;;5090567;28;20036;-56
2021/07/23 07:37:50;;;;;;;5.60;2.90;;;;;;;;;;5070516;28;20075;-57
2021/07/23 07:40:17;;;;;;;4.65;4.03;;;;;;;;;;5087194;28;20087;-56
2021/07/23 07:42:43;;;;;;;3.03;2.83;;;;;;;;;;5093108;28;20048;-57
2021/07/23 07:45:10;;;;;;;3.70;3.38;;;;;;;;;;5087002;28;20079;-57
2021/07/23 07:47:37;;;;;;;2.88;1.60;;;;;;;;;;5090474;28;20044;-56
2021/07/23 07:50:04;;;;;;;3.33;1.95;;;;;;;;;;5089052;28;20059;-57
2021/07/23 07:52:31;;;;;;;2.25;2.15;;;;;;;;;;5069585;28;20055;-56
2021/07/23 07:54:57;;;;;;;2.03;1.85;;;;;;;;;;5091030;28;20040;-57
2021/07/23 07:57:25;;;;;;;4.35;1.98;;;;;;;;;;5088598;28;20126;-57
2021/07/23 07:59:52;;;;;;;3.17;2.75;;;;;;;;;;5091602;28;20060;-58
2021/07/23 08:02:19;;;;;;;3.42;2.30;;;;;;;;;;5091017;28;20471;-57
2021/07/23 08:04:47;;;;;;;2.53;2.38;;;;;;;;;;5092531;28;20089;-56
2021/07/23 08:07:18;;;;;;;2.50;2.20;;;;;;;;;;5094040;28;20101;-56
2021/07/23 08:09:58;;;;;;;4.28;2.47;;;;;;;;;;5091982;28;20036;-57
2021/07/23 08:12:25;;;;;;;2.42;2.30;;;;;;;;;;5080694;28;20086;-56
2021/07/23 08:14:51;;;;;;;2.88;2.03;;;;;;;;;;5093237;28;20040;-56
2021/07/23 08:17:18;;;;;;;7.82;2.33;;;;;;;;;;5090233;28;20067;-57
2021/07/23 08:19:45;;;;;;;2.53;1.85;;;;;;;;;;5093278;28;20047;-56
2021/07/23 08:22:12;;;;;;;2.35;1.70;;;;;;;;;;5088827;28;20044;-58
2021/07/23 08:24:40;;;;;;;5.63;1.60;;;;;;;;;;5080589;28;20243;-58
2021/07/23 08:27:07;;;;;;;3.47;1.77;;;;;;;;;;5092202;28;20494;-56
2021/07/23 08:29:33;;;;;;;3.65;1.50;;;;;;;;;;5092808;28;20368;-57
2021/07/23 08:32:07;;;;;;;4.93;1.70;;;;;;;;;;5092312;28;20140;-58
2021/07/23 08:34:34;;;;;;;4.00;1.73;;;;;;;;;;5085678;28;20048;-56
2021/07/23 08:37:01;;;;;;;5.40;2.05;;;;;;;;;;5078049;28;20117;-57
2021/07/23 08:39:27;;;;;;;2.10;1.63;;;;;;;;;;5092377;28;20047;-57
2021/07/23 08:41:54;;;;;;;7.43;3.15;;;;;;;;;;5095445;28;20102;-56
2021/07/23 08:44:22;;;;;;;4.63;2.05;;;;;;;;;;5087364;28;20067;-56
2021/07/23 08:46:49;;;;;;;4.35;2.05;;;;;;;;;;5090790;28;20089;-57
2021/07/23 08:49:16;;;;;;;1.98;1.15;;;;;;;;;;5088867;28;20040;-57
2021/07/23 08:51:50;;;;;;;2.63;1.55;;;;;;;;;;5077645;28;20508;-57
2021/07/23 08:54:17;;;;;;;2.95;1.67;;;;;;;;;;5088963;28;20096;-57
2021/07/23 08:56:44;;;;;;;2.78;1.60;;;;;;;;;;5082431;28;20052;-58
2021/07/23 08:59:11;;;;;;;2.22;1.63;;;;;;;;;;5091403;28;20109;-57
2021/07/23 09:01:57;;;;;;;1.88;1.40;;;;;;;;;;5089086;28;20044;-57
2021/07/23 09:04:28;;;;;;;1.65;1.55;;;;;;;;;;5091214;28;20043;-57
2021/07/23 09:07:25;;;;;;;2.72;1.67;;;;;;;;;;5092266;28;20024;-57
2021/07/23 09:10:05;;;;;;;3.17;1.48;;;;;;;;;;5069849;28;20143;-57
2021/07/23 09:12:45;;;;;;;1.90;1.80;;;;;;;;;;5083536;28;20040;-57
2021/07/23 09:15:23;;;;;;;8.05;3.00;;;;;;;;;;5092646;28;20419;-56
2021/07/23 09:17:50;;;;;;;5.00;2.10;;;;;;;;;;5090347;28;20040;-57
2021/07/23 09:20:21;;;;;;;2.67;1.85;;;;;;;;;;5090914;28;20475;-56
2021/07/23 09:22:49;;;;;;;2.78;1.30;;;;;;;;;;5094853;28;20040;-56
2021/07/23 09:25:30;;;;;;;3.97;1.48;;;;;;;;;;5098394;28;20078;-57
2021/07/23 09:27:57;;;;;;;4.32;1.63;;;;;;;;;;5091977;28;20093;-57
2021/07/23 09:30:41;;;;;;;6.82;1.60;;;;;;;;;;5091065;28;20527;-58
2021/07/23 09:33:08;;;;;;;2.20;1.45;;;;;;;;;;5073737;28;20176;-57
2021/07/23 09:35:36;;;;;;;3.17;1.95;;;;;;;;;;5082413;28;20541;-57
2021/07/23 09:38:03;;;;;;;2.13;1.75;;;;;;;;;;5081394;28;20699;-57
2021/07/23 09:40:40;;;;;;;3.45;1.17;;;;;;;;;;5095699;28;20109;-55
2021/07/23 09:43:07;;;;;;;2.53;2.33;;;;;;;;;;5085936;28;20529;-56
2021/07/23 09:45:34;;;;;;;1.58;1.48;;;;;;;;;;5089415;28;20036;-57
2021/07/23 09:48:14;;;;;;;4.55;2.28;;;;;;;;;;5079734;28;20056;-57
2021/07/23 09:50:46;;;;;;;4.63;1.35;;;;;;;;;;5084347;28;20077;-58
2021/07/23 09:53:14;;;;;;;4.40;1.60;;;;;;;;;;5073571;28;20032;-58
2021/07/23 09:55:46;;;;;;;1.48;1.38;;;;;;;;;;5090165;28;20496;-57
2021/07/23 09:58:18;;;;;;;1.30;1.20;;;;;;;;;;5086031;28;20450;-58
2021/07/23 10:00:48;;;;;;;3.63;1.40;;;;;;;;;;5085453;28;20139;-57
2021/07/23 10:03:16;;;;;;;1.83;1.73;;;;;;;;;;5088238;28;20089;-56
2021/07/23 10:06:12;;;;;;;2.25;1.35;;;;;;;;;;5089551;28;20060;-57
2021/07/23 10:08:43;;;;;;;2.10;1.85;;;;;;;;;;5047716;28;20044;-57
2021/07/23 10:11:10;;;;;;;2.08;1.92;;;;;;;;;;5085768;28;20064;-57
2021/07/23 10:13:40;;;;;;;1.50;1.50;;;;;;;;;;5068107;28;20047;-56
2021/07/23 10:16:08;;;;;;;4.60;1.48;;;;;;;;;;5085561;28;20044;-57
2021/07/23 10:18:35;;;;;;;2.10;1.90;;;;;;;;;;5084882;28;20075;-56
2021/07/23 10:21:02;;;;;;;1.38;1.20;;;;;;;;;;5090284;28;20131;-57
2021/07/23 10:23:29;;;;;;;2.33;1.65;;;;;;;;;;5087245;28;20105;-57
2021/07/23 10:25:57;;;;;;;2.47;1.50;;;;;;;;;;5079213;28;20036;-58
2021/07/23 10:28:36;;;;;;;4.65;1.42;;;;;;;;;;5088097;28;20035;-57
2021/07/23 10:31:27;;;;;;;1.88;1.58;;;;;;;;;;5086697;28;20073;-57
2021/07/23 10:33:58;;;;;;;2.85;1.75;;;;;;;;;;5077711;28;20132;-56
2021/07/23 10:36:31;;;;;;;2.88;1.60;;;;;;;;;;5085303;28;20052;-57
2021/07/23 10:39:04;;;;;;;2.25;1.30;;;;;;;;;;5083876;28;20040;-57
2021/07/23 10:41:41;;;;;;;3.35;1.40;;;;;;;;;;5084062;28;20476;-57
2021/07/23 10:44:26;;;;;;;1.25;1.23;;;;;;;;;;5090127;28;20036;-57
2021/07/23 10:46:54;;;;;;;1.50;1.20;;;;;;;;;;5095898;28;20127;-57
2021/07/23 10:49:27;;;;;;;2.28;1.52;;;;;;;;;;5078085;28;20062;-58
2021/07/23 10:51:55;;;;;;;2.35;1.15;;;;;;;;;;5084081;28;20040;-58
2021/07/23 10:54:22;;;;;;;1.75;1.65;;;;;;;;;;5071458;28;20435;-57
2021/07/23 10:57:00;;;;;;;1.45;1.20;;;;;;;;;;5083449;28;20748;-56
2021/07/23 10:59:39;;;;;;;2.90;1.50;;;;;;;;;;5082543;28;20484;-57
2021/07/23 11:02:15;;;;;;;3.35;1.50;;;;;;;;;;5088955;28;20146;-57
2021/07/23 11:04:44;;;;;;;7.07;1.70;;;;;;;;;;5084581;28;20097;-57
2021/07/23 11:07:12;;;;;;;2.00;1.67;;;;;;;;;;5081211;28;20078;-57
2021/07/23 11:09:39;;;;;;;2.50;1.67;;;;;;;;;;5079147;28;20484;-56
2021/07/23 11:12:15;;;;;;;1.50;1.40;;;;;;;;;;5088167;28;20028;-57
2021/07/23 11:14:42;;;;;;;1.40;1.30;;;;;;;;;;5086876;28;20054;-56
2021/07/23 11:17:10;;;;;;;3.42;1.40;;;;;;;;;;5089937;28;20070;-56
2021/07/23 11:19:37;;;;;;;2.10;1.58;;;;;;;;;;5087201;28;20056;-57
2021/07/23 11:22:03;;;;;;;3.05;1.20;;;;;;;;;;5080255;28;20048;-57
2021/07/23 11:24:34;;;;;;;2.85;1.20;;;;;;;;;;5087341;28;20130;-56
2021/07/23 11:27:01;;;;;;;2.05;1.30;;;;;;;;;;5088109;28;20094;-56
2021/07/23 11:29:36;;;;;;;2.20;2.00;;;;;;;;;;5090171;28;20036;-56
2021/07/23 11:32:13;;;;;;;1.85;1.08;;;;;;;;;;5088225;28;20446;-58
2021/07/23 11:34:44;;;;;;;2.00;1.10;;;;;;;;;;5091043;28;20055;-57
2021/07/23 11:37:15;;;;;;;2.15;1.00;;;;;;;;;;5093828;28;20480;-57
2021/07/23 11:39:49;;;;;;;1.10;1.00;;;;;;;;;;5094708;28;20074;-55
2021/07/23 11:42:15;;;;;;;2.08;0.93;;;;;;;;;;5092586;28;20406;-55
2021/07/23 11:44:54;;;;;;;1.10;1.10;;;;;;;;;;5090185;28;20040;-55
2021/07/23 11:47:40;;;;;;;1.48;1.38;;;;;;;;;;5078256;28;20036;-55
2021/07/23 11:50:08;;;;;;;1.30;1.13;;;;;;;;;;5079815;28;20033;-55
2021/07/23 11:52:35;;;;;;;2.95;1.58;;;;;;;;;;5088771;28;20040;-55
2021/07/23 11:55:04;;;;;;;2.72;1.83;;;;;;;;;;5091787;28;20040;-55
2021/07/23 11:57:35;;;;;;;1.20;1.10;;;;;;;;;;5089417;28;20095;-55
2021/07/23 12:00:02;;;;;;;1.70;1.15;;;;;;;;;;5084543;28;20067;-56
2021/07/23 12:02:29;;;;;;;1.55;1.45;;;;;;;;;;5091358;28;20499;-56
2021/07/23 12:05:09;;;;;;;2.55;1.58;;;;;;;;;;5091605;28;20028;-55
2021/07/23 12:07:37;;;;;;;1.83;1.30;;;;;;;;;;5096121;28;20106;-55
2021/07/23 12:10:05;;;;;;;1.35;1.25;;;;;;;;;;5092751;28;20044;-56
2021/07/23 12:12:32;;;;;;;2.83;1.30;;;;;;;;;;5089890;28;20036;-55
2021/07/23 12:15:07;;;;;;;1.70;1.35;;;;;;;;;;5094327;28;20641;-55
2021/07/23 12:17:34;;;;;;;1.90;1.73;;;;;;;;;;5086479;28;20098;-55
2021/07/23 12:20:04;;;;;;;1.27;1.27;;;;;;;;;;5084185;28;20105;-55
2021/07/23 12:22:31;;;;;;;2.85;1.30;;;;;;;;;;5082823;28;20466;-55
2021/07/23 12:24:58;;;;;;;5.47;2.63;;;;;;;;;;5090793;28;20040;-56
2021/07/23 12:27:25;;;;;;;3.00;1.20;;;;;;;;;;5089216;28;20040;-56
2021/07/23 12:29:52;;;;;;;1.52;1.23;;;;;;;;;;5091119;28;20124;-56
2021/07/23 12:32:23;;;;;;;4.57;1.30;;;;;;;;;;5089664;28;20063;-55
2021/07/23 12:34:56;;;;;;;1.77;1.67;;;;;;;;;;5093448;28;20043;-55
2021/07/23 12:37:23;;;;;;;2.35;2.15;;;;;;;;;;5087059;28;20044;-55
2021/07/23 12:39:57;;;;;;;3.47;1.20;;;;;;;;;;5083087;28;20043;-56
2021/07/23 12:42:24;;;;;;;2.53;1.75;;;;;;;;;;5087598;28;20039;-56
2021/07/23 12:44:51;;;;;;;1.25;1.08;;;;;;;;;;5085578;28;20579;-56
2021/07/23 12:47:19;;;;;;;2.88;1.38;;;;;;;;;;5091237;28;20107;-56
2021/07/23 12:49:51;;;;;;;1.73;1.17;;;;;;;;;;5093440;28;20052;-55
2021/07/23 12:52:18;;;;;;;1.10;1.10;;;;;;;;;;5091730;28;20044;-55
2021/07/23 12:54:49;;;;;;;2.92;1.90;;;;;;;;;;5091381;28;20123;-56
2021/07/23 12:57:19;;;;;;;1.73;1.60;;;;;;;;;;5088428;28;20036;-58
2021/07/23 12:59:48;;;;;;;2.33;1.20;;;;;;;;;;5075601;28;20104;-55
2021/07/23 13:02:15;;;;;;;1.40;1.30;;;;;;;;;;5091913;28;20059;-55
2021/07/23 13:04:43;;;;;;;1.33;1.25;;;;;;;;;;5089752;28;20046;-55
2021/07/23 13:07:13;;;;;;;2.30;1.75;;;;;;;;;;5107935;28;20063;-55
2021/07/23 13:09:44;;;;;;;2.13;1.35;;;;;;;;;;5086120;28;20437;-56
2021/07/23 13:12:14;;;;;;;3.92;1.30;;;;;;;;;;5083785;28;20032;-56
2021/07/23 13:14:40;;;;;;;2.30;2.05;;;;;;;;;;5084440;28;20085;-55
2021/07/23 13:17:07;;;;;;;1.77;1.50;;;;;;;;;;5086594;28;20521;-56
2021/07/23 13:19:34;;;;;;;1.90;1.80;;;;;;;;;;5090567;28;20133;-56
2021/07/23 13:22:02;;;;;;;1.20;1.10;;;;;;;;;;5092045;28;20074;-55
2021/07/23 13:24:29;;;;;;;1.30;1.30;;;;;;;;;;5089603;28;20043;-56
2021/07/23 13:26:56;;;;;;;1.48;1.25;;;;;;;;;;5086773;28;20067;-56
2021/07/23 13:29:23;;;;;;;1.13;1.10;;;;;;;;;;5086597;28;20040;-56
2021/07/23 13:31:51;;;;;;;1.40;1.30;;;;;;;;;;5072629;28;20431;-56
2021/07/23 13:34:18;;;;;;;2.17;1.38;;;;;;;;;;5091108;28;20028;-55
2021/07/23 13:36:49;;;;;;;1.05;1.00;;;;;;;;;;5090760;28;20044;-55
2021/07/23 13:39:27;;;;;;;1.23;1.20;;;;;;;;;;5091741;28;20105;-55
2021/07/23 13:41:56;;;;;;;1.77;1.52;;;;;;;;;;5085963;28;20059;-56
2021/07/23 13:44:24;;;;;;;1.10;1.00;;;;;;;;;;5076279;28;20098;-55
2021/07/23 13:46:51;;;;;;;1.17;1.05;;;;;;;;;;5089328;28;20462;-55
2021/07/23 13:49:18;;;;;;;1.42;1.27;;;;;;;;;;5091288;28;20028;-56
2021/07/23 13:51:44;;;;;;;1.65;1.15;;;;;;;;;;5091253;28;20055;-56
2021/07/23 13:54:11;;;;;;;2.05;1.10;;;;;;;;;;5089569;28;20036;-56
2021/07/23 13:56:40;;;;;;;2.58;1.40;;;;;;;;;;5088559;28;20464;-56
2021/07/23 13:59:07;;;;;;;2.95;1.00;;;;;;;;;;5091562;28;20035;-56
2021/07/23 14:01:36;;;;;;;1.17;1.17;;;;;;;;;;5088274;28;20048;-57
2021/07/23 14:04:03;;;;;;;1.67;1.30;;;;;;;;;;5079149;28;20048;-56
2021/07/23 14:06:30;;;;;;;1.27;1.00;;;;;;;;;;5090408;28;20089;-55
2021/07/23 14:08:58;;;;;;;1.15;1.15;;;;;;;;;;5089773;28;20036;-56
2021/07/23 14:11:25;;;;;;;1.10;1.10;;;;;;;;;;5077802;28;20043;-55
2021/07/23 14:13:52;;;;;;;1.00;1.00;;;;;;;;;;5087855;28;20500;-56
2021/07/23 14:16:23;;;;;;;2.42;1.50;;;;;;;;;;5087484;28;20044;-55
2021/07/23 14:18:50;;;;;;;2.75;1.02;;;;;;;;;;5083343;28;20128;-55
2021/07/23 14:21:20;;;;;;;3.35;1.30;;;;;;;;;;5087713;28;20047;-55
2021/07/23 14:23:47;;;;;;;2.05;1.20;;;;;;;;;;5091510;28;20407;-56
2021/07/23 14:26:15;;;;;;;1.33;1.23;;;;;;;;;;5086716;28;20536;-55
2021/07/23 14:28:42;;;;;;;1.65;1.27;;;;;;;;;;5075733;28;20151;-56
2021/07/23 14:31:09;;;;;;;3.00;1.50;;;;;;;;;;5090211;28;20053;-56
2021/07/23 14:33:35;;;;;;;1.10;1.00;;;;;;;;;;5091049;28;20430;-55
2021/07/23 14:36:03;;;;;;;1.00;1.00;;;;;;;;;;5107325;28;20123;-56
2021/07/23 14:38:30;;;;;;;1.80;1.27;;;;;;;;;;5084690;28;20350;-56
2021/07/23 14:40:57;;;;;;;1.20;1.10;;;;;;;;;;5084543;28;20151;-56
2021/07/23 14:43:23;;;;;;;1.60;1.50;;;;;;;;;;5090751;28;20071;-56
2021/07/23 14:45:50;;;;;;;1.17;1.08;;;;;;;;;;5088721;28;20040;-55
2021/07/23 14:48:17;;;;;;;1.50;1.40;;;;;;;;;;5087694;28;20040;-55
2021/07/23 14:50:47;;;;;;;1.77;1.00;;;;;;;;;;5084382;28;20040;-56